sensor_id;sensor_type;location;lat;lon;timestamp;temperature;humidity
431;DHT22;202;48.764;9.172;2024-03-17T00:02:13;10.70;44.30
431;DHT22;202;48.764;9.172;2024-03-17T00:04:38;10.60;44.20
431;DHT22;202;48.764;9.172;2024-03-17T00:07:06;10.50;44.10
431;DHT22;202;48.764;9.172;2024-03-17T00:09:33;10.50;44.10
431;DHT22;202;48.764;9.172;2024-03-17T00:12:00;10.50;44.10
431;DHT22;202;48.764;9.172;2024-03-17T00:14:26;10.60;44.90
431;DHT22;202;48.764;9.172;2024-03-17T00:16:54;10.60;44.70
431;DHT22;202;48.764;9.172;2024-03-17T00:19:20;10.60;44.70
431;DHT22;202;48.764;9.172;2024-03-17T00:21:48;10.60;44.70
431;DHT22;202;48.764;9.172;2024-03-17T00:24:18;10.60;44.20
431;DHT22;202;48.764;9.172;2024-03-17T00:26:46;10.60;44.30
431;DHT22;202;48.764;9.172;2024-03-17T00:29:25;10.50;45.70
431;DHT22;202;48.764;9.172;2024-03-17T00:32:00;10.60;44.20
431;DHT22;202;48.764;9.172;2024-03-17T00:34:37;10.60;44.50
431;DHT22;202;48.764;9.172;2024-03-17T00:37:29;10.60;45.10
431;DHT22;202;48.764;9.172;2024-03-17T00:40:27;10.60;44.10
431;DHT22;202;48.764;9.172;2024-03-17T00:43:20;10.70;44.30
431;DHT22;202;48.764;9.172;2024-03-17T00:46:14;10.70;44.30
431;DHT22;202;48.764;9.172;2024-03-17T00:48:54;10.70;44.20
431;DHT22;202;48.764;9.172;2024-03-17T02:15:22;10.50;43.30
431;DHT22;202;48.764;9.172;2024-03-17T02:40:59;10.40;43.30
431;DHT22;202;48.764;9.172;2024-03-17T02:51:28;10.40;44.00
431;DHT22;202;48.764;9.172;2024-03-17T02:57:46;10.30;43.60
431;DHT22;202;48.764;9.172;2024-03-17T03:00:27;10.20;43.80
431;DHT22;202;48.764;9.172;2024-03-17T03:10:03;10.10;44.70
431;DHT22;202;48.764;9.172;2024-03-17T03:13:15;10.10;44.90
431;DHT22;202;48.764;9.172;2024-03-17T03:16:00;10.20;43.80
431;DHT22;202;48.764;9.172;2024-03-17T03:20:13;10.20;43.80
431;DHT22;202;48.764;9.172;2024-03-17T03:22:04;10.20;43.50
431;DHT22;202;48.764;9.172;2024-03-17T03:24:59;10.20;43.30
431;DHT22;202;48.764;9.172;2024-03-17T03:37:37;10.20;43.80
431;DHT22;202;48.764;9.172;2024-03-17T03:40:49;10.20;43.80
431;DHT22;202;48.764;9.172;2024-03-17T03:55:18;10.10;43.70
431;DHT22;202;48.764;9.172;2024-03-17T05:19:11;9.60;48.30
431;DHT22;202;48.764;9.172;2024-03-17T05:22:44;9.70;47.90
431;DHT22;202;48.764;9.172;2024-03-17T05:29:15;9.70;47.60
431;DHT22;202;48.764;9.172;2024-03-17T05:45:26;9.70;48.90
431;DHT22;202;48.764;9.172;2024-03-17T05:52:06;9.70;46.90
431;DHT22;202;48.764;9.172;2024-03-17T05:55:47;9.60;47.70
431;DHT22;202;48.764;9.172;2024-03-17T06:54:20;9.70;49.10
431;DHT22;202;48.764;9.172;2024-03-17T06:58:03;9.90;48.60
431;DHT22;202;48.764;9.172;2024-03-17T07:00:58;10.20;47.60
431;DHT22;202;48.764;9.172;2024-03-17T07:04:11;10.40;43.80
431;DHT22;202;48.764;9.172;2024-03-17T07:40:03;13.70;30.60
431;DHT22;202;48.764;9.172;2024-03-17T07:43:08;13.80;30.20
431;DHT22;202;48.764;9.172;2024-03-17T07:46:46;13.60;29.60
431;DHT22;202;48.764;9.172;2024-03-17T07:53:39;13.50;31.50
431;DHT22;202;48.764;9.172;2024-03-17T07:56:34;13.40;31.60
431;DHT22;202;48.764;9.172;2024-03-17T07:59:36;13.30;31.60
431;DHT22;202;48.764;9.172;2024-03-17T08:02:11;13.10;32.80
431;DHT22;202;48.764;9.172;2024-03-17T08:08:10;12.90;35.30
431;DHT22;202;48.764;9.172;2024-03-17T10:03:44;14.80;24.10
431;DHT22;202;48.764;9.172;2024-03-17T10:06:20;14.90;23.50
431;DHT22;202;48.764;9.172;2024-03-17T10:09:02;14.90;22.90
431;DHT22;202;48.764;9.172;2024-03-17T10:11:51;14.70;22.30
431;DHT22;202;48.764;9.172;2024-03-17T10:14:37;14.90;23.10
431;DHT22;202;48.764;9.172;2024-03-17T10:17:04;15.10;22.90
431;DHT22;202;48.764;9.172;2024-03-17T10:19:34;15.10;23.00
431;DHT22;202;48.764;9.172;2024-03-17T10:22:05;15.20;23.00
431;DHT22;202;48.764;9.172;2024-03-17T10:24:39;15.20;22.00
431;DHT22;202;48.764;9.172;2024-03-17T10:27:20;15.20;21.10
431;DHT22;202;48.764;9.172;2024-03-17T10:29:52;15.30;21.20
431;DHT22;202;48.764;9.172;2024-03-17T10:33:00;15.40;19.50
431;DHT22;202;48.764;9.172;2024-03-17T10:36:04;15.10;18.70
431;DHT22;202;48.764;9.172;2024-03-17T10:38:35;15.20;18.50
431;DHT22;202;48.764;9.172;2024-03-17T10:41:04;15.20;23.20
431;DHT22;202;48.764;9.172;2024-03-17T10:43:36;15.40;25.20
431;DHT22;202;48.764;9.172;2024-03-17T10:46:16;15.40;19.00
431;DHT22;202;48.764;9.172;2024-03-17T10:49:00;15.40;18.70
431;DHT22;202;48.764;9.172;2024-03-17T10:51:31;15.50;20.70
431;DHT22;202;48.764;9.172;2024-03-17T10:54:09;15.60;19.60
431;DHT22;202;48.764;9.172;2024-03-17T10:56:55;15.90;19.80
431;DHT22;202;48.764;9.172;2024-03-17T10:59:38;15.90;16.60
431;DHT22;202;48.764;9.172;2024-03-17T11:02:17;16.10;18.70
431;DHT22;202;48.764;9.172;2024-03-17T11:04:48;16.30;19.20
431;DHT22;202;48.764;9.172;2024-03-17T11:07:19;16.50;17.10
431;DHT22;202;48.764;9.172;2024-03-17T11:09:47;16.40;14.70
431;DHT22;202;48.764;9.172;2024-03-17T11:12:51;16.10;15.70
431;DHT22;202;48.764;9.172;2024-03-17T11:15:39;16.00;17.90
431;DHT22;202;48.764;9.172;2024-03-17T11:18:36;16.20;19.70
431;DHT22;202;48.764;9.172;2024-03-17T11:21:10;16.20;16.30
431;DHT22;202;48.764;9.172;2024-03-17T11:23:55;16.20;15.90
431;DHT22;202;48.764;9.172;2024-03-17T11:26:28;16.10;16.30
431;DHT22;202;48.764;9.172;2024-03-17T11:28:55;16.20;16.80
431;DHT22;202;48.764;9.172;2024-03-17T11:31:41;16.20;19.20
431;DHT22;202;48.764;9.172;2024-03-17T11:34:28;16.40;15.80
431;DHT22;202;48.764;9.172;2024-03-17T11:36:55;16.40;16.70
431;DHT22;202;48.764;9.172;2024-03-17T11:39:48;16.50;15.20
431;DHT22;202;48.764;9.172;2024-03-17T11:42:22;16.50;15.40
431;DHT22;202;48.764;9.172;2024-03-17T11:44:57;16.60;16.40
431;DHT22;202;48.764;9.172;2024-03-17T11:47:23;16.50;14.50
431;DHT22;202;48.764;9.172;2024-03-17T11:50:04;16.40;15.40
431;DHT22;202;48.764;9.172;2024-03-17T11:52:30;16.50;15.90
431;DHT22;202;48.764;9.172;2024-03-17T12:01:57;16.10;17.20
431;DHT22;202;48.764;9.172;2024-03-17T12:04:56;16.00;18.80
431;DHT22;202;48.764;9.172;2024-03-17T12:07:24;16.00;18.80
431;DHT22;202;48.764;9.172;2024-03-17T12:09:53;16.10;18.00
431;DHT22;202;48.764;9.172;2024-03-17T12:12:20;15.80;18.40
431;DHT22;202;48.764;9.172;2024-03-17T12:14:49;15.70;18.70
431;DHT22;202;48.764;9.172;2024-03-17T12:17:22;15.70;20.20
431;DHT22;202;48.764;9.172;2024-03-17T12:19:49;15.70;20.00
431;DHT22;202;48.764;9.172;2024-03-17T12:22:20;15.70;19.90
431;DHT22;202;48.764;9.172;2024-03-17T12:24:48;15.60;18.90
431;DHT22;202;48.764;9.172;2024-03-17T12:27:17;15.50;18.60
431;DHT22;202;48.764;9.172;2024-03-17T12:29:44;15.30;19.30
431;DHT22;202;48.764;9.172;2024-03-17T12:32:13;15.30;19.80
431;DHT22;202;48.764;9.172;2024-03-17T12:34:42;15.10;19.00
431;DHT22;202;48.764;9.172;2024-03-17T12:37:15;15.10;20.40
431;DHT22;202;48.764;9.172;2024-03-17T12:39:41;14.90;19.60
431;DHT22;202;48.764;9.172;2024-03-17T12:42:10;15.00;19.70
431;DHT22;202;48.764;9.172;2024-03-17T12:44:37;15.10;20.40
431;DHT22;202;48.764;9.172;2024-03-17T12:47:08;15.20;20.50
431;DHT22;202;48.764;9.172;2024-03-17T12:49:46;15.10;19.60
431;DHT22;202;48.764;9.172;2024-03-17T12:52:18;15.10;19.60
431;DHT22;202;48.764;9.172;2024-03-17T12:54:44;15.20;19.70
431;DHT22;202;48.764;9.172;2024-03-17T12:57:31;15.20;20.10
431;DHT22;202;48.764;9.172;2024-03-17T13:00:17;15.20;20.10
431;DHT22;202;48.764;9.172;2024-03-17T13:03:00;15.10;20.40
431;DHT22;202;48.764;9.172;2024-03-17T13:05:28;15.20;20.50
431;DHT22;202;48.764;9.172;2024-03-17T13:07:58;15.10;20.50
431;DHT22;202;48.764;9.172;2024-03-17T13:10:26;15.00;20.30
431;DHT22;202;48.764;9.172;2024-03-17T13:12:59;15.10;20.40
431;DHT22;202;48.764;9.172;2024-03-17T13:15:27;15.10;20.00
431;DHT22;202;48.764;9.172;2024-03-17T13:17:56;15.10;20.40
431;DHT22;202;48.764;9.172;2024-03-17T13:20:23;15.30;20.60
431;DHT22;202;48.764;9.172;2024-03-17T13:23:06;15.40;20.60
431;DHT22;202;48.764;9.172;2024-03-17T13:25:49;15.50;19.50
431;DHT22;202;48.764;9.172;2024-03-17T13:28:23;15.70;19.30
431;DHT22;202;48.764;9.172;2024-03-17T13:31:14;15.60;18.60
431;DHT22;202;48.764;9.172;2024-03-17T13:33:49;15.60;17.90
431;DHT22;202;48.764;9.172;2024-03-17T13:40:44;15.90;17.00
431;DHT22;202;48.764;9.172;2024-03-17T13:43:29;15.50;17.90
431;DHT22;202;48.764;9.172;2024-03-17T13:49:31;15.60;18.00
431;DHT22;202;48.764;9.172;2024-03-17T13:52:33;15.60;18.40
431;DHT22;202;48.764;9.172;2024-03-17T13:56:00;15.60;18.00
431;DHT22;202;48.764;9.172;2024-03-17T13:59:22;15.70;17.50
431;DHT22;202;48.764;9.172;2024-03-17T14:02:14;15.70;17.40
431;DHT22;202;48.764;9.172;2024-03-17T14:05:15;15.70;17.40
431;DHT22;202;48.764;9.172;2024-03-17T14:08:16;15.70;17.20
431;DHT22;202;48.764;9.172;2024-03-17T14:14:23;15.80;18.60
431;DHT22;202;48.764;9.172;2024-03-17T14:17:55;15.80;17.90
431;DHT22;202;48.764;9.172;2024-03-17T14:20:38;15.90;18.00
431;DHT22;202;48.764;9.172;2024-03-17T14:23:16;16.00;18.30
431;DHT22;202;48.764;9.172;2024-03-17T14:26:30;16.00;17.30
431;DHT22;202;48.764;9.172;2024-03-17T14:29:38;16.10;16.50
431;DHT22;202;48.764;9.172;2024-03-17T14:32:26;16.00;17.40
431;DHT22;202;48.764;9.172;2024-03-17T14:35:18;16.10;16.00
431;DHT22;202;48.764;9.172;2024-03-17T14:38:15;16.00;16.50
431;DHT22;202;48.764;9.172;2024-03-17T14:41:05;16.00;16.60
431;DHT22;202;48.764;9.172;2024-03-17T14:45:13;16.10;16.50
431;DHT22;202;48.764;9.172;2024-03-17T14:57:48;16.20;16.40
431;DHT22;202;48.764;9.172;2024-03-17T15:03:33;16.10;17.10
431;DHT22;202;48.764;9.172;2024-03-17T15:06:31;16.10;16.90
431;DHT22;202;48.764;9.172;2024-03-17T15:09:10;16.20;17.30
431;DHT22;202;48.764;9.172;2024-03-17T15:11:44;16.10;15.90
431;DHT22;202;48.764;9.172;2024-03-17T15:14:18;16.10;16.00
431;DHT22;202;48.764;9.172;2024-03-17T15:17:05;16.00;16.20
431;DHT22;202;48.764;9.172;2024-03-17T15:20:03;15.90;16.70
431;DHT22;202;48.764;9.172;2024-03-17T15:28:55;15.80;16.10
431;DHT22;202;48.764;9.172;2024-03-17T15:32:55;15.60;16.50
431;DHT22;202;48.764;9.172;2024-03-17T15:35:30;15.50;17.40
431;DHT22;202;48.764;9.172;2024-03-17T15:38:01;15.50;17.80
431;DHT22;202;48.764;9.172;2024-03-17T15:40:52;15.60;17.00
431;DHT22;202;48.764;9.172;2024-03-17T15:43:22;15.60;17.70
431;DHT22;202;48.764;9.172;2024-03-17T15:45:52;15.70;18.20
431;DHT22;202;48.764;9.172;2024-03-17T15:48:40;15.80;18.00
431;DHT22;202;48.764;9.172;2024-03-17T15:51:14;15.90;17.70
431;DHT22;202;48.764;9.172;2024-03-17T15:53:46;15.90;17.30
431;DHT22;202;48.764;9.172;2024-03-17T15:56:13;15.80;17.00
431;DHT22;202;48.764;9.172;2024-03-17T15:58:49;15.80;17.90
431;DHT22;202;48.764;9.172;2024-03-17T16:01:19;15.80;17.70
431;DHT22;202;48.764;9.172;2024-03-17T16:03:56;15.80;17.70
431;DHT22;202;48.764;9.172;2024-03-17T16:06:23;15.70;17.30
431;DHT22;202;48.764;9.172;2024-03-17T16:08:51;15.80;17.20
431;DHT22;202;48.764;9.172;2024-03-17T16:11:28;15.80;17.90
431;DHT22;202;48.764;9.172;2024-03-17T16:13:57;15.80;18.10
431;DHT22;202;48.764;9.172;2024-03-17T16:16:25;15.70;17.30
431;DHT22;202;48.764;9.172;2024-03-17T16:18:55;15.80;18.30
431;DHT22;202;48.764;9.172;2024-03-17T16:21:22;15.60;18.60
431;DHT22;202;48.764;9.172;2024-03-17T16:23:54;15.60;17.90
431;DHT22;202;48.764;9.172;2024-03-17T16:26:24;15.70;18.30
431;DHT22;202;48.764;9.172;2024-03-17T16:28:49;15.60;18.60
431;DHT22;202;48.764;9.172;2024-03-17T16:31:20;15.60;18.30
431;DHT22;202;48.764;9.172;2024-03-17T16:33:47;15.50;18.30
431;DHT22;202;48.764;9.172;2024-03-17T16:36:16;15.50;18.20
431;DHT22;202;48.764;9.172;2024-03-17T16:38:43;15.50;18.80
431;DHT22;202;48.764;9.172;2024-03-17T16:41:11;15.60;18.60
431;DHT22;202;48.764;9.172;2024-03-17T16:43:45;15.30;18.20
431;DHT22;202;48.764;9.172;2024-03-17T16:46:42;15.40;18.90
431;DHT22;202;48.764;9.172;2024-03-17T16:49:11;15.30;19.10
431;DHT22;202;48.764;9.172;2024-03-17T16:51:40;15.40;19.70
431;DHT22;202;48.764;9.172;2024-03-17T16:54:08;15.40;19.10
431;DHT22;202;48.764;9.172;2024-03-17T16:56:36;15.40;19.00
431;DHT22;202;48.764;9.172;2024-03-17T16:59:03;15.30;18.90
431;DHT22;202;48.764;9.172;2024-03-17T17:01:30;15.30;18.90
431;DHT22;202;48.764;9.172;2024-03-17T17:03:58;15.30;19.10
431;DHT22;202;48.764;9.172;2024-03-17T17:06:30;15.30;19.00
431;DHT22;202;48.764;9.172;2024-03-17T17:08:58;15.40;18.90
431;DHT22;202;48.764;9.172;2024-03-17T17:11:30;15.40;18.90
431;DHT22;202;48.764;9.172;2024-03-17T17:13:59;15.40;18.20
431;DHT22;202;48.764;9.172;2024-03-17T17:16:26;15.30;19.10
431;DHT22;202;48.764;9.172;2024-03-17T17:18:58;15.20;18.80
431;DHT22;202;48.764;9.172;2024-03-17T17:21:26;15.10;19.30
431;DHT22;202;48.764;9.172;2024-03-17T17:23:54;15.10;19.80
431;DHT22;202;48.764;9.172;2024-03-17T17:26:26;15.10;20.40
431;DHT22;202;48.764;9.172;2024-03-17T17:28:57;15.00;19.40
431;DHT22;202;48.764;9.172;2024-03-17T17:31:26;14.90;19.80
431;DHT22;202;48.764;9.172;2024-03-17T17:33:56;14.80;20.20
431;DHT22;202;48.764;9.172;2024-03-17T17:36:30;14.80;21.00
431;DHT22;202;48.764;9.172;2024-03-17T17:38:59;14.70;20.20
431;DHT22;202;48.764;9.172;2024-03-17T17:41:27;14.90;20.30
431;DHT22;202;48.764;9.172;2024-03-17T17:43:54;14.90;20.30
431;DHT22;202;48.764;9.172;2024-03-17T17:46:22;14.90;20.30
431;DHT22;202;48.764;9.172;2024-03-17T17:48:51;14.90;20.30
431;DHT22;202;48.764;9.172;2024-03-17T17:51:22;15.00;20.30
431;DHT22;202;48.764;9.172;2024-03-17T17:53:50;15.00;20.30
431;DHT22;202;48.764;9.172;2024-03-17T17:56:20;15.00;20.30
431;DHT22;202;48.764;9.172;2024-03-17T17:58:50;15.00;20.60
431;DHT22;202;48.764;9.172;2024-03-17T18:01:24;14.90;20.50
431;DHT22;202;48.764;9.172;2024-03-17T18:03:54;15.00;20.30
431;DHT22;202;48.764;9.172;2024-03-17T18:06:23;14.90;20.30
431;DHT22;202;48.764;9.172;2024-03-17T18:08:53;15.00;20.30
431;DHT22;202;48.764;9.172;2024-03-17T18:11:21;14.90;20.30
431;DHT22;202;48.764;9.172;2024-03-17T18:13:51;14.90;20.30
431;DHT22;202;48.764;9.172;2024-03-17T18:16:20;14.90;20.70
431;DHT22;202;48.764;9.172;2024-03-17T18:18:49;14.90;20.30
431;DHT22;202;48.764;9.172;2024-03-17T18:21:16;14.90;20.30
431;DHT22;202;48.764;9.172;2024-03-17T18:23:50;14.80;20.60
431;DHT22;202;48.764;9.172;2024-03-17T18:26:18;14.80;20.20
431;DHT22;202;48.764;9.172;2024-03-17T18:28:45;14.80;20.60
431;DHT22;202;48.764;9.172;2024-03-17T18:31:14;14.70;20.10
431;DHT22;202;48.764;9.172;2024-03-17T18:33:43;14.70;20.80
431;DHT22;202;48.764;9.172;2024-03-17T18:36:11;14.70;20.90
431;DHT22;202;48.764;9.172;2024-03-17T18:38:39;14.80;21.00
431;DHT22;202;48.764;9.172;2024-03-17T18:41:12;14.80;21.30
431;DHT22;202;48.764;9.172;2024-03-17T18:43:40;14.80;20.90
431;DHT22;202;48.764;9.172;2024-03-17T18:46:16;14.70;20.90
431;DHT22;202;48.764;9.172;2024-03-17T18:48:50;14.70;21.50
431;DHT22;202;48.764;9.172;2024-03-17T18:51:19;14.70;21.40
431;DHT22;202;48.764;9.172;2024-03-17T18:53:48;14.60;21.30
431;DHT22;202;48.764;9.172;2024-03-17T18:56:17;14.60;20.90
431;DHT22;202;48.764;9.172;2024-03-17T18:58:45;14.60;21.20
431;DHT22;202;48.764;9.172;2024-03-17T19:01:18;14.60;21.70
431;DHT22;202;48.764;9.172;2024-03-17T19:03:49;14.60;22.20
431;DHT22;202;48.764;9.172;2024-03-17T19:06:22;14.60;21.90
431;DHT22;202;48.764;9.172;2024-03-17T19:09:03;14.70;22.30
431;DHT22;202;48.764;9.172;2024-03-17T19:11:43;14.70;22.50
431;DHT22;202;48.764;9.172;2024-03-17T19:14:14;14.70;22.20
431;DHT22;202;48.764;9.172;2024-03-17T19:16:44;14.70;22.30
431;DHT22;202;48.764;9.172;2024-03-17T19:19:14;14.70;22.80
431;DHT22;202;48.764;9.172;2024-03-17T19:21:41;14.70;22.90
431;DHT22;202;48.764;9.172;2024-03-17T19:24:13;14.70;22.90
431;DHT22;202;48.764;9.172;2024-03-17T19:26:42;14.70;22.70
431;DHT22;202;48.764;9.172;2024-03-17T19:29:10;14.70;23.20
431;DHT22;202;48.764;9.172;2024-03-17T19:31:37;14.70;23.30
431;DHT22;202;48.764;9.172;2024-03-17T19:34:09;14.60;23.60
431;DHT22;202;48.764;9.172;2024-03-17T19:36:37;14.60;23.70
431;DHT22;202;48.764;9.172;2024-03-17T19:39:08;14.60;23.60
431;DHT22;202;48.764;9.172;2024-03-17T19:41:44;14.60;23.50
431;DHT22;202;48.764;9.172;2024-03-17T19:44:14;14.60;23.80
431;DHT22;202;48.764;9.172;2024-03-17T19:46:44;14.60;24.20
431;DHT22;202;48.764;9.172;2024-03-17T19:49:13;14.50;24.10
431;DHT22;202;48.764;9.172;2024-03-17T19:51:47;14.50;24.40
431;DHT22;202;48.764;9.172;2024-03-17T19:54:14;14.50;24.40
431;DHT22;202;48.764;9.172;2024-03-17T19:56:42;14.50;24.30
431;DHT22;202;48.764;9.172;2024-03-17T19:59:13;14.50;24.10
431;DHT22;202;48.764;9.172;2024-03-17T20:01:40;14.40;24.40
431;DHT22;202;48.764;9.172;2024-03-17T20:04:13;14.30;24.50
431;DHT22;202;48.764;9.172;2024-03-17T20:06:42;14.40;24.60
431;DHT22;202;48.764;9.172;2024-03-17T20:09:21;14.30;24.70
431;DHT22;202;48.764;9.172;2024-03-17T20:11:47;14.40;24.90
431;DHT22;202;48.764;9.172;2024-03-17T20:14:19;14.40;25.30
431;DHT22;202;48.764;9.172;2024-03-17T20:16:48;14.40;25.10
431;DHT22;202;48.764;9.172;2024-03-17T20:19:23;14.40;24.70
431;DHT22;202;48.764;9.172;2024-03-17T20:21:56;14.40;24.60
431;DHT22;202;48.764;9.172;2024-03-17T20:24:23;14.40;24.50
431;DHT22;202;48.764;9.172;2024-03-17T20:26:53;14.30;24.80
431;DHT22;202;48.764;9.172;2024-03-17T20:29:23;14.30;24.60
431;DHT22;202;48.764;9.172;2024-03-17T20:31:52;14.20;24.40
431;DHT22;202;48.764;9.172;2024-03-17T20:34:23;14.20;24.10
431;DHT22;202;48.764;9.172;2024-03-17T20:36:53;14.20;24.10
431;DHT22;202;48.764;9.172;2024-03-17T20:39:20;14.20;25.00
431;DHT22;202;48.764;9.172;2024-03-17T20:41:52;14.20;24.80
431;DHT22;202;48.764;9.172;2024-03-17T20:44:19;14.10;24.60
431;DHT22;202;48.764;9.172;2024-03-17T20:46:57;14.20;24.70
431;DHT22;202;48.764;9.172;2024-03-17T20:49:30;14.10;24.80
431;DHT22;202;48.764;9.172;2024-03-17T20:52:01;14.10;24.90
431;DHT22;202;48.764;9.172;2024-03-17T20:54:30;14.10;24.70
431;DHT22;202;48.764;9.172;2024-03-17T20:56:57;14.00;24.90
431;DHT22;202;48.764;9.172;2024-03-17T20:59:33;14.00;25.10
431;DHT22;202;48.764;9.172;2024-03-17T21:02:02;14.00;25.00
431;DHT22;202;48.764;9.172;2024-03-17T21:04:48;14.00;25.60
431;DHT22;202;48.764;9.172;2024-03-17T21:07:32;13.90;26.30
431;DHT22;202;48.764;9.172;2024-03-17T21:19:29;13.70;25.30
431;DHT22;202;48.764;9.172;2024-03-17T21:22:02;13.70;25.40
431;DHT22;202;48.764;9.172;2024-03-17T21:24:32;13.70;25.50
431;DHT22;202;48.764;9.172;2024-03-17T21:27:09;13.70;25.70
431;DHT22;202;48.764;9.172;2024-03-17T21:29:36;13.70;26.20
431;DHT22;202;48.764;9.172;2024-03-17T21:32:06;13.70;25.90
431;DHT22;202;48.764;9.172;2024-03-17T21:34:36;13.70;26.00
431;DHT22;202;48.764;9.172;2024-03-17T21:37:06;13.70;26.10
431;DHT22;202;48.764;9.172;2024-03-17T21:39:35;13.70;26.90
431;DHT22;202;48.764;9.172;2024-03-17T21:42:05;13.70;26.20
431;DHT22;202;48.764;9.172;2024-03-17T21:44:44;13.70;25.90
431;DHT22;202;48.764;9.172;2024-03-17T21:47:14;13.60;26.20
431;DHT22;202;48.764;9.172;2024-03-17T21:49:50;13.60;27.50
431;DHT22;202;48.764;9.172;2024-03-17T21:52:21;13.60;27.10
431;DHT22;202;48.764;9.172;2024-03-17T21:54:52;13.60;27.50
431;DHT22;202;48.764;9.172;2024-03-17T21:57:21;13.60;27.50
431;DHT22;202;48.764;9.172;2024-03-17T21:59:51;13.70;27.60
431;DHT22;202;48.764;9.172;2024-03-17T22:02:18;13.60;27.50
431;DHT22;202;48.764;9.172;2024-03-17T22:04:50;13.60;27.50
431;DHT22;202;48.764;9.172;2024-03-17T22:07:21;13.70;27.60
431;DHT22;202;48.764;9.172;2024-03-17T22:09:58;13.70;28.10
431;DHT22;202;48.764;9.172;2024-03-17T22:12:26;13.70;28.70
431;DHT22;202;48.764;9.172;2024-03-17T22:14:53;13.70;29.10
431;DHT22;202;48.764;9.172;2024-03-17T22:17:35;13.60;28.80
431;DHT22;202;48.764;9.172;2024-03-17T22:20:04;13.50;29.50
431;DHT22;202;48.764;9.172;2024-03-17T22:22:38;13.40;30.70
431;DHT22;202;48.764;9.172;2024-03-17T22:25:08;13.20;31.60
431;DHT22;202;48.764;9.172;2024-03-17T22:27:43;13.30;30.20
431;DHT22;202;48.764;9.172;2024-03-17T22:30:14;13.20;32.90
431;DHT22;202;48.764;9.172;2024-03-17T22:32:42;13.20;34.60
431;DHT22;202;48.764;9.172;2024-03-17T22:35:09;13.10;35.40
431;DHT22;202;48.764;9.172;2024-03-17T22:37:37;13.10;34.00
431;DHT22;202;48.764;9.172;2024-03-17T22:40:07;12.90;36.30
431;DHT22;202;48.764;9.172;2024-03-17T22:42:40;12.90;37.10
431;DHT22;202;48.764;9.172;2024-03-17T22:45:16;12.70;41.40
431;DHT22;202;48.764;9.172;2024-03-17T22:47:45;12.50;37.30
431;DHT22;202;48.764;9.172;2024-03-17T22:50:11;12.40;37.50
431;DHT22;202;48.764;9.172;2024-03-17T22:52:39;12.30;38.80
431;DHT22;202;48.764;9.172;2024-03-17T22:55:07;12.20;40.00
431;DHT22;202;48.764;9.172;2024-03-17T22:57:34;12.20;40.70
431;DHT22;202;48.764;9.172;2024-03-17T23:00:01;12.20;41.80
431;DHT22;202;48.764;9.172;2024-03-17T23:02:38;12.20;44.20
431;DHT22;202;48.764;9.172;2024-03-17T23:05:05;12.40;49.10
431;DHT22;202;48.764;9.172;2024-03-17T23:07:36;12.50;42.30
431;DHT22;202;48.764;9.172;2024-03-17T23:10:05;12.60;42.00
431;DHT22;202;48.764;9.172;2024-03-17T23:12:32;12.50;42.80
431;DHT22;202;48.764;9.172;2024-03-17T23:15:28;12.40;44.90
431;DHT22;202;48.764;9.172;2024-03-17T23:18:16;12.10;43.00
431;DHT22;202;48.764;9.172;2024-03-17T23:21:03;12.10;43.20
431;DHT22;202;48.764;9.172;2024-03-17T23:24:09;12.10;42.80
431;DHT22;202;48.764;9.172;2024-03-17T23:26:45;12.20;43.00
431;DHT22;202;48.764;9.172;2024-03-17T23:29:24;12.20;43.80
431;DHT22;202;48.764;9.172;2024-03-17T23:31:53;12.30;44.80
431;DHT22;202;48.764;9.172;2024-03-17T23:34:23;12.30;45.70
431;DHT22;202;48.764;9.172;2024-03-17T23:36:51;12.30;45.70
431;DHT22;202;48.764;9.172;2024-03-17T23:39:28;12.40;45.70
431;DHT22;202;48.764;9.172;2024-03-17T23:42:05;12.40;45.90
431;DHT22;202;48.764;9.172;2024-03-17T23:44:32;12.40;44.90
431;DHT22;202;48.764;9.172;2024-03-17T23:46:58;12.40;45.70
431;DHT22;202;48.764;9.172;2024-03-17T23:49:25;12.40;45.80
431;DHT22;202;48.764;9.172;2024-03-17T23:51:52;12.50;44.80
431;DHT22;202;48.764;9.172;2024-03-17T23:54:21;12.60;44.40
431;DHT22;202;48.764;9.172;2024-03-17T23:56:50;12.70;42.30
431;DHT22;202;48.764;9.172;2024-03-17T23:59:19;12.70;41.20
